sensor_id;sensor_type;location;lat;lon;timestamp;P1;durP1;ratioP1;P2;durP2;ratioP2
37303;SDS011;23188;51.188;16.374;2023-05-27T00:02:06;9.80;;;4.40;;
37303;SDS011;23188;51.188;16.374;2023-05-27T00:06:09;12.80;;;5.50;;
37303;SDS011;23188;51.188;16.374;2023-05-27T00:10:12;18.00;;;4.90;;
37303;SDS011;23188;51.188;16.374;2023-05-27T00:14:15;15.30;;;6.40;;
37303;SDS011;23188;51.188;16.374;2023-05-27T00:18:20;15.60;;;5.60;;
37303;SDS011;23188;51.188;16.374;2023-05-27T00:22:23;17.60;;;6.20;;
37303;SDS011;23188;51.188;16.374;2023-05-27T00:26:28;17.20;;;7.80;;
37303;SDS011;23188;51.188;16.374;2023-05-27T00:30:31;18.40;;;6.50;;
37303;SDS011;23188;51.188;16.374;2023-05-27T00:34:34;15.30;;;6.70;;
37303;SDS011;23188;51.188;16.374;2023-05-27T00:38:37;9.90;;;7.00;;
37303;SDS011;23188;51.188;16.374;2023-05-27T00:42:40;16.90;;;6.10;;
37303;SDS011;23188;51.188;16.374;2023-05-27T00:46:44;12.80;;;6.70;;
37303;SDS011;23188;51.188;16.374;2023-05-27T00:54:52;17.60;;;7.60;;
37303;SDS011;23188;51.188;16.374;2023-05-27T00:58:56;12.30;;;6.40;;
37303;SDS011;23188;51.188;16.374;2023-05-27T01:02:59;12.50;;;5.00;;
37303;SDS011;23188;51.188;16.374;2023-05-27T01:07:03;10.60;;;6.70;;
37303;SDS011;23188;51.188;16.374;2023-05-27T01:11:12;18.60;;;7.50;;
37303;SDS011;23188;51.188;16.374;2023-05-27T01:15:48;7.10;;;4.20;;
37303;SDS011;23188;51.188;16.374;2023-05-27T01:19:55;11.20;;;5.10;;
37303;SDS011;23188;51.188;16.374;2023-05-27T01:24:02;21.90;;;8.70;;
37303;SDS011;23188;51.188;16.374;2023-05-27T01:28:06;16.60;;;6.30;;
37303;SDS011;23188;51.188;16.374;2023-05-27T01:36:45;12.50;;;7.10;;
37303;SDS011;23188;51.188;16.374;2023-05-27T01:40:51;17.60;;;6.40;;
37303;SDS011;23188;51.188;16.374;2023-05-27T01:44:56;14.30;;;5.30;;
37303;SDS011;23188;51.188;16.374;2023-05-27T01:53:27;16.70;;;6.00;;
37303;SDS011;23188;51.188;16.374;2023-05-27T01:57:30;16.10;;;7.10;;
37303;SDS011;23188;51.188;16.374;2023-05-27T02:01:33;21.40;;;8.20;;
37303;SDS011;23188;51.188;16.374;2023-05-27T02:05:36;17.10;;;6.80;;
37303;SDS011;23188;51.188;16.374;2023-05-27T02:09:46;12.80;;;7.10;;
37303;SDS011;23188;51.188;16.374;2023-05-27T02:13:49;14.60;;;7.80;;
37303;SDS011;23188;51.188;16.374;2023-05-27T02:17:52;14.70;;;7.20;;
37303;SDS011;23188;51.188;16.374;2023-05-27T02:21:58;12.00;;;5.70;;
37303;SDS011;23188;51.188;16.374;2023-05-27T02:26:01;18.50;;;7.40;;
37303;SDS011;23188;51.188;16.374;2023-05-27T02:34:34;19.40;;;7.80;;
37303;SDS011;23188;51.188;16.374;2023-05-27T02:38:45;12.60;;;6.50;;
37303;SDS011;23188;51.188;16.374;2023-05-27T02:42:48;13.40;;;7.40;;
37303;SDS011;23188;51.188;16.374;2023-05-27T02:46:51;11.50;;;6.00;;
37303;SDS011;23188;51.188;16.374;2023-05-27T02:55:51;14.30;;;7.40;;
37303;SDS011;23188;51.188;16.374;2023-05-27T02:59:55;20.30;;;8.10;;
37303;SDS011;23188;51.188;16.374;2023-05-27T03:03:58;20.50;;;7.00;;
37303;SDS011;23188;51.188;16.374;2023-05-27T03:08:01;16.40;;;8.10;;
37303;SDS011;23188;51.188;16.374;2023-05-27T03:12:05;12.00;;;6.00;;
37303;SDS011;23188;51.188;16.374;2023-05-27T03:16:08;14.00;;;6.40;;
37303;SDS011;23188;51.188;16.374;2023-05-27T03:20:11;13.70;;;8.20;;
37303;SDS011;23188;51.188;16.374;2023-05-27T03:28:49;26.50;;;9.50;;
37303;SDS011;23188;51.188;16.374;2023-05-27T03:32:52;12.00;;;7.30;;
37303;SDS011;23188;51.188;16.374;2023-05-27T03:36:55;24.30;;;7.80;;
37303;SDS011;23188;51.188;16.374;2023-05-27T03:40:58;11.30;;;6.30;;
37303;SDS011;23188;51.188;16.374;2023-05-27T03:45:03;24.50;;;10.00;;
37303;SDS011;23188;51.188;16.374;2023-05-27T03:49:06;16.00;;;6.50;;
37303;SDS011;23188;51.188;16.374;2023-05-27T03:53:09;16.40;;;9.20;;
37303;SDS011;23188;51.188;16.374;2023-05-27T03:57:12;13.20;;;9.30;;
37303;SDS011;23188;51.188;16.374;2023-05-27T04:01:15;17.60;;;8.50;;
37303;SDS011;23188;51.188;16.374;2023-05-27T04:05:19;14.90;;;7.10;;
37303;SDS011;23188;51.188;16.374;2023-05-27T04:13:50;24.00;;;9.10;;
37303;SDS011;23188;51.188;16.374;2023-05-27T04:17:53;21.50;;;8.20;;
37303;SDS011;23188;51.188;16.374;2023-05-27T04:26:29;12.10;;;7.50;;
37303;SDS011;23188;51.188;16.374;2023-05-27T04:30:32;11.70;;;7.10;;
37303;SDS011;23188;51.188;16.374;2023-05-27T04:34:35;10.90;;;7.20;;
37303;SDS011;23188;51.188;16.374;2023-05-27T04:38:39;10.50;;;6.70;;
37303;SDS011;23188;51.188;16.374;2023-05-27T04:42:43;15.30;;;8.40;;
37303;SDS011;23188;51.188;16.374;2023-05-27T04:46:46;16.30;;;8.10;;
37303;SDS011;23188;51.188;16.374;2023-05-27T04:50:49;18.10;;;8.00;;
37303;SDS011;23188;51.188;16.374;2023-05-27T04:54:55;14.60;;;7.20;;
37303;SDS011;23188;51.188;16.374;2023-05-27T04:58:58;15.20;;;7.40;;
37303;SDS011;23188;51.188;16.374;2023-05-27T05:03:16;14.20;;;7.00;;
37303;SDS011;23188;51.188;16.374;2023-05-27T05:07:24;12.80;;;6.50;;
37303;SDS011;23188;51.188;16.374;2023-05-27T05:11:27;15.40;;;6.60;;
37303;SDS011;23188;51.188;16.374;2023-05-27T05:15:30;13.40;;;6.00;;
37303;SDS011;23188;51.188;16.374;2023-05-27T05:19:43;14.80;;;7.50;;
37303;SDS011;23188;51.188;16.374;2023-05-27T05:23:46;16.80;;;6.70;;
37303;SDS011;23188;51.188;16.374;2023-05-27T05:27:50;21.60;;;8.30;;
37303;SDS011;23188;51.188;16.374;2023-05-27T05:31:54;12.90;;;7.70;;
37303;SDS011;23188;51.188;16.374;2023-05-27T05:35:58;15.60;;;7.20;;
37303;SDS011;23188;51.188;16.374;2023-05-27T05:40:00;17.80;;;7.70;;
37303;SDS011;23188;51.188;16.374;2023-05-27T05:50:27;27.20;;;7.70;;
37303;SDS011;23188;51.188;16.374;2023-05-27T05:55:09;13.90;;;7.00;;
37303;SDS011;23188;51.188;16.374;2023-05-27T05:59:59;17.60;;;6.80;;
37303;SDS011;23188;51.188;16.374;2023-05-27T06:05:07;19.90;;;6.70;;
37303;SDS011;23188;51.188;16.374;2023-05-27T06:10:16;29.60;;;7.30;;
37303;SDS011;23188;51.188;16.374;2023-05-27T06:15:28;15.40;;;6.90;;
37303;SDS011;23188;51.188;16.374;2023-05-27T06:19:46;9.50;;;6.50;;
37303;SDS011;23188;51.188;16.374;2023-05-27T06:29:01;9.00;;;5.30;;
37303;SDS011;23188;51.188;16.374;2023-05-27T06:33:16;14.90;;;6.00;;
37303;SDS011;23188;51.188;16.374;2023-05-27T06:37:21;15.90;;;7.00;;
37303;SDS011;23188;51.188;16.374;2023-05-27T06:41:28;12.20;;;6.40;;
37303;SDS011;23188;51.188;16.374;2023-05-27T06:45:35;10.00;;;5.10;;
37303;SDS011;23188;51.188;16.374;2023-05-27T06:49:40;19.90;;;13.50;;
37303;SDS011;23188;51.188;16.374;2023-05-27T06:53:46;15.90;;;6.80;;
37303;SDS011;23188;51.188;16.374;2023-05-27T06:58:01;11.60;;;5.00;;
37303;SDS011;23188;51.188;16.374;2023-05-27T07:02:07;13.10;;;8.30;;
37303;SDS011;23188;51.188;16.374;2023-05-27T07:06:28;24.60;;;18.20;;
37303;SDS011;23188;51.188;16.374;2023-05-27T07:10:31;12.50;;;5.00;;
37303;SDS011;23188;51.188;16.374;2023-05-27T07:14:36;14.70;;;5.60;;
37303;SDS011;23188;51.188;16.374;2023-05-27T07:18:39;22.20;;;16.90;;
37303;SDS011;23188;51.188;16.374;2023-05-27T07:22:42;18.40;;;7.50;;
37303;SDS011;23188;51.188;16.374;2023-05-27T07:26:45;9.40;;;4.80;;
37303;SDS011;23188;51.188;16.374;2023-05-27T07:30:47;10.40;;;4.10;;
37303;SDS011;23188;51.188;16.374;2023-05-27T07:34:50;7.20;;;4.90;;
37303;SDS011;23188;51.188;16.374;2023-05-27T07:38:53;11.40;;;4.30;;
37303;SDS011;23188;51.188;16.374;2023-05-27T07:42:56;11.10;;;3.70;;
37303;SDS011;23188;51.188;16.374;2023-05-27T07:46:59;7.80;;;4.10;;
37303;SDS011;23188;51.188;16.374;2023-05-27T07:51:08;8.40;;;4.30;;
37303;SDS011;23188;51.188;16.374;2023-05-27T07:55:11;10.80;;;3.60;;
37303;SDS011;23188;51.188;16.374;2023-05-27T07:59:14;12.70;;;4.10;;
37303;SDS011;23188;51.188;16.374;2023-05-27T08:07:48;5.20;;;3.10;;
37303;SDS011;23188;51.188;16.374;2023-05-27T08:11:51;12.40;;;3.70;;
37303;SDS011;23188;51.188;16.374;2023-05-27T08:15:54;6.30;;;3.10;;
37303;SDS011;23188;51.188;16.374;2023-05-27T08:19:57;8.40;;;5.70;;
37303;SDS011;23188;51.188;16.374;2023-05-27T08:24:00;7.70;;;4.00;;
37303;SDS011;23188;51.188;16.374;2023-05-27T08:28:03;10.60;;;3.30;;
37303;SDS011;23188;51.188;16.374;2023-05-27T08:32:06;12.30;;;4.00;;
37303;SDS011;23188;51.188;16.374;2023-05-27T08:36:09;7.70;;;3.50;;
37303;SDS011;23188;51.188;16.374;2023-05-27T08:40:15;9.40;;;4.50;;
37303;SDS011;23188;51.188;16.374;2023-05-27T08:44:22;12.30;;;4.90;;
37303;SDS011;23188;51.188;16.374;2023-05-27T08:48:28;11.50;;;3.80;;
37303;SDS011;23188;51.188;16.374;2023-05-27T08:52:30;9.10;;;3.80;;
37303;SDS011;23188;51.188;16.374;2023-05-27T08:56:34;11.80;;;4.40;;
37303;SDS011;23188;51.188;16.374;2023-05-27T09:00:38;13.60;;;3.80;;
37303;SDS011;23188;51.188;16.374;2023-05-27T09:04:41;5.40;;;3.00;;
37303;SDS011;23188;51.188;16.374;2023-05-27T09:08:45;31.30;;;5.80;;
37303;SDS011;23188;51.188;16.374;2023-05-27T09:12:53;5.50;;;3.60;;
37303;SDS011;23188;51.188;16.374;2023-05-27T09:17:04;7.80;;;3.20;;
37303;SDS011;23188;51.188;16.374;2023-05-27T09:21:09;9.00;;;2.80;;
37303;SDS011;23188;51.188;16.374;2023-05-27T09:29:41;15.30;;;3.70;;
37303;SDS011;23188;51.188;16.374;2023-05-27T09:38:36;4.30;;;2.30;;
37303;SDS011;23188;51.188;16.374;2023-05-27T09:46:45;5.00;;;3.50;;
37303;SDS011;23188;51.188;16.374;2023-05-27T09:50:51;7.80;;;4.10;;
37303;SDS011;23188;51.188;16.374;2023-05-27T09:54:55;7.70;;;3.20;;
37303;SDS011;23188;51.188;16.374;2023-05-27T10:07:46;11.10;;;5.50;;
37303;SDS011;23188;51.188;16.374;2023-05-27T10:12:10;10.60;;;4.40;;
37303;SDS011;23188;51.188;16.374;2023-05-27T10:16:20;23.40;;;13.90;;
37303;SDS011;23188;51.188;16.374;2023-05-27T10:20:50;11.60;;;8.60;;
37303;SDS011;23188;51.188;16.374;2023-05-27T10:24:54;4.40;;;3.70;;
37303;SDS011;23188;51.188;16.374;2023-05-27T10:33:28;10.70;;;4.10;;
37303;SDS011;23188;51.188;16.374;2023-05-27T10:37:38;5.50;;;3.00;;
37303;SDS011;23188;51.188;16.374;2023-05-27T10:50:12;8.50;;;3.70;;
37303;SDS011;23188;51.188;16.374;2023-05-27T10:54:16;9.70;;;3.10;;
37303;SDS011;23188;51.188;16.374;2023-05-27T10:58:34;7.70;;;4.10;;
37303;SDS011;23188;51.188;16.374;2023-05-27T11:02:39;8.30;;;4.30;;
37303;SDS011;23188;51.188;16.374;2023-05-27T11:06:42;10.30;;;4.00;;
37303;SDS011;23188;51.188;16.374;2023-05-27T11:10:45;17.80;;;5.20;;
37303;SDS011;23188;51.188;16.374;2023-05-27T11:14:50;9.40;;;3.60;;
37303;SDS011;23188;51.188;16.374;2023-05-27T11:18:54;12.10;;;4.00;;
37303;SDS011;23188;51.188;16.374;2023-05-27T11:23:01;14.40;;;5.00;;
37303;SDS011;23188;51.188;16.374;2023-05-27T11:27:13;6.10;;;3.80;;
37303;SDS011;23188;51.188;16.374;2023-05-27T11:31:19;8.90;;;3.40;;
37303;SDS011;23188;51.188;16.374;2023-05-27T11:35:23;5.80;;;3.00;;
37303;SDS011;23188;51.188;16.374;2023-05-27T11:39:31;10.10;;;3.90;;
37303;SDS011;23188;51.188;16.374;2023-05-27T11:43:35;8.40;;;3.50;;
37303;SDS011;23188;51.188;16.374;2023-05-27T11:47:40;9.40;;;4.80;;
37303;SDS011;23188;51.188;16.374;2023-05-27T11:51:49;12.20;;;4.40;;
37303;SDS011;23188;51.188;16.374;2023-05-27T11:55:52;6.80;;;3.20;;
37303;SDS011;23188;51.188;16.374;2023-05-27T12:04:10;12.40;;;4.20;;
37303;SDS011;23188;51.188;16.374;2023-05-27T12:08:13;6.30;;;3.30;;
37303;SDS011;23188;51.188;16.374;2023-05-27T12:12:19;13.80;;;4.80;;
37303;SDS011;23188;51.188;16.374;2023-05-27T12:16:23;5.60;;;3.70;;
37303;SDS011;23188;51.188;16.374;2023-05-27T12:20:28;9.00;;;3.30;;
37303;SDS011;23188;51.188;16.374;2023-05-27T12:24:31;10.70;;;4.00;;
37303;SDS011;23188;51.188;16.374;2023-05-27T12:28:37;24.80;;;9.00;;
37303;SDS011;23188;51.188;16.374;2023-05-27T12:32:42;11.60;;;4.40;;
37303;SDS011;23188;51.188;16.374;2023-05-27T12:36:45;5.00;;;2.90;;
37303;SDS011;23188;51.188;16.374;2023-05-27T12:40:50;6.60;;;3.10;;
37303;SDS011;23188;51.188;16.374;2023-05-27T12:44:53;3.70;;;2.20;;
37303;SDS011;23188;51.188;16.374;2023-05-27T12:48:57;6.20;;;3.20;;
37303;SDS011;23188;51.188;16.374;2023-05-27T12:53:00;9.90;;;3.00;;
37303;SDS011;23188;51.188;16.374;2023-05-27T12:57:13;7.70;;;3.20;;
37303;SDS011;23188;51.188;16.374;2023-05-27T13:05:45;8.80;;;3.40;;
37303;SDS011;23188;51.188;16.374;2023-05-27T13:20:24;5.80;;;3.00;;
37303;SDS011;23188;51.188;16.374;2023-05-27T13:24:28;8.10;;;3.70;;
37303;SDS011;23188;51.188;16.374;2023-05-27T13:28:30;6.60;;;2.50;;
37303;SDS011;23188;51.188;16.374;2023-05-27T13:37:07;5.80;;;2.40;;
37303;SDS011;23188;51.188;16.374;2023-05-27T13:41:18;5.50;;;2.30;;
37303;SDS011;23188;51.188;16.374;2023-05-27T13:45:56;5.00;;;3.20;;
37303;SDS011;23188;51.188;16.374;2023-05-27T13:50:01;6.40;;;2.90;;
37303;SDS011;23188;51.188;16.374;2023-05-27T13:54:38;4.30;;;2.70;;
37303;SDS011;23188;51.188;16.374;2023-05-27T13:59:16;4.50;;;2.40;;
37303;SDS011;23188;51.188;16.374;2023-05-27T14:03:58;4.30;;;2.60;;
37303;SDS011;23188;51.188;16.374;2023-05-27T14:08:22;5.20;;;2.10;;
37303;SDS011;23188;51.188;16.374;2023-05-27T14:12:26;5.20;;;2.60;;
37303;SDS011;23188;51.188;16.374;2023-05-27T14:20:44;5.10;;;2.80;;
37303;SDS011;23188;51.188;16.374;2023-05-27T14:24:48;5.40;;;3.10;;
37303;SDS011;23188;51.188;16.374;2023-05-27T14:28:51;6.90;;;3.40;;
37303;SDS011;23188;51.188;16.374;2023-05-27T14:32:54;7.30;;;2.50;;
37303;SDS011;23188;51.188;16.374;2023-05-27T14:36:58;8.90;;;2.50;;
37303;SDS011;23188;51.188;16.374;2023-05-27T14:41:01;7.30;;;2.80;;
37303;SDS011;23188;51.188;16.374;2023-05-27T14:50:01;7.30;;;2.50;;
37303;SDS011;23188;51.188;16.374;2023-05-27T14:54:04;5.90;;;2.40;;
37303;SDS011;23188;51.188;16.374;2023-05-27T15:02:52;3.60;;;2.50;;
37303;SDS011;23188;51.188;16.374;2023-05-27T15:07:03;4.00;;;2.00;;
37303;SDS011;23188;51.188;16.374;2023-05-27T15:11:07;6.90;;;1.80;;
37303;SDS011;23188;51.188;16.374;2023-05-27T15:15:11;1.90;;;1.70;;
37303;SDS011;23188;51.188;16.374;2023-05-27T15:19:17;5.10;;;2.30;;
37303;SDS011;23188;51.188;16.374;2023-05-27T15:23:21;3.90;;;2.10;;
37303;SDS011;23188;51.188;16.374;2023-05-27T15:27:39;4.00;;;2.50;;
37303;SDS011;23188;51.188;16.374;2023-05-27T15:31:49;2.70;;;2.00;;
37303;SDS011;23188;51.188;16.374;2023-05-27T15:35:58;6.50;;;2.50;;
37303;SDS011;23188;51.188;16.374;2023-05-27T15:40:02;5.10;;;2.70;;
37303;SDS011;23188;51.188;16.374;2023-05-27T15:44:09;3.50;;;1.70;;
37303;SDS011;23188;51.188;16.374;2023-05-27T15:48:16;5.40;;;2.00;;
37303;SDS011;23188;51.188;16.374;2023-05-27T15:52:21;5.50;;;2.00;;
37303;SDS011;23188;51.188;16.374;2023-05-27T15:56:27;3.90;;;2.20;;
37303;SDS011;23188;51.188;16.374;2023-05-27T16:00:31;2.00;;;1.40;;
37303;SDS011;23188;51.188;16.374;2023-05-27T16:04:34;3.90;;;2.30;;
37303;SDS011;23188;51.188;16.374;2023-05-27T16:08:38;1.70;;;1.60;;
37303;SDS011;23188;51.188;16.374;2023-05-27T16:12:41;3.30;;;1.60;;
37303;SDS011;23188;51.188;16.374;2023-05-27T16:16:47;7.50;;;2.30;;
37303;SDS011;23188;51.188;16.374;2023-05-27T16:20:51;4.50;;;2.10;;
37303;SDS011;23188;51.188;16.374;2023-05-27T16:24:55;3.30;;;1.60;;
37303;SDS011;23188;51.188;16.374;2023-05-27T16:28:59;2.40;;;1.90;;
37303;SDS011;23188;51.188;16.374;2023-05-27T16:33:02;5.60;;;2.40;;
37303;SDS011;23188;51.188;16.374;2023-05-27T16:37:06;3.80;;;1.60;;
37303;SDS011;23188;51.188;16.374;2023-05-27T16:41:09;3.80;;;2.10;;
37303;SDS011;23188;51.188;16.374;2023-05-27T16:45:13;5.30;;;2.50;;
37303;SDS011;23188;51.188;16.374;2023-05-27T16:49:16;3.70;;;1.90;;
37303;SDS011;23188;51.188;16.374;2023-05-27T16:53:19;3.10;;;1.40;;
37303;SDS011;23188;51.188;16.374;2023-05-27T16:57:22;2.00;;;1.60;;
37303;SDS011;23188;51.188;16.374;2023-05-27T17:01:26;2.40;;;1.50;;
37303;SDS011;23188;51.188;16.374;2023-05-27T17:05:29;3.30;;;1.60;;
37303;SDS011;23188;51.188;16.374;2023-05-27T17:09:33;3.60;;;1.50;;
37303;SDS011;23188;51.188;16.374;2023-05-27T17:13:37;3.40;;;1.20;;
37303;SDS011;23188;51.188;16.374;2023-05-27T17:17:40;7.20;;;2.00;;
37303;SDS011;23188;51.188;16.374;2023-05-27T17:21:47;3.60;;;1.90;;
37303;SDS011;23188;51.188;16.374;2023-05-27T17:25:50;3.20;;;1.80;;
37303;SDS011;23188;51.188;16.374;2023-05-27T17:29:54;12.80;;;2.50;;
37303;SDS011;23188;51.188;16.374;2023-05-27T17:33:57;3.40;;;1.80;;
37303;SDS011;23188;51.188;16.374;2023-05-27T17:38:04;3.80;;;1.70;;
37303;SDS011;23188;51.188;16.374;2023-05-27T17:42:07;3.90;;;2.00;;
37303;SDS011;23188;51.188;16.374;2023-05-27T17:46:11;6.00;;;1.90;;
37303;SDS011;23188;51.188;16.374;2023-05-27T17:50:15;2.40;;;1.50;;
37303;SDS011;23188;51.188;16.374;2023-05-27T17:54:18;5.30;;;2.00;;
37303;SDS011;23188;51.188;16.374;2023-05-27T17:58:22;3.10;;;2.30;;
37303;SDS011;23188;51.188;16.374;2023-05-27T18:02:25;3.20;;;1.90;;
37303;SDS011;23188;51.188;16.374;2023-05-27T18:06:29;3.90;;;2.00;;
37303;SDS011;23188;51.188;16.374;2023-05-27T18:10:32;3.60;;;2.70;;
37303;SDS011;23188;51.188;16.374;2023-05-27T18:14:36;3.50;;;2.10;;
37303;SDS011;23188;51.188;16.374;2023-05-27T18:18:40;2.60;;;1.70;;
37303;SDS011;23188;51.188;16.374;2023-05-27T18:22:46;8.80;;;2.20;;
37303;SDS011;23188;51.188;16.374;2023-05-27T18:26:51;1.20;;;1.10;;
37303;SDS011;23188;51.188;16.374;2023-05-27T18:30:54;2.20;;;2.00;;
37303;SDS011;23188;51.188;16.374;2023-05-27T18:34:58;2.50;;;1.90;;
37303;SDS011;23188;51.188;16.374;2023-05-27T18:39:06;4.10;;;1.60;;
37303;SDS011;23188;51.188;16.374;2023-05-27T18:43:10;3.70;;;1.90;;
37303;SDS011;23188;51.188;16.374;2023-05-27T18:47:13;4.40;;;2.20;;
37303;SDS011;23188;51.188;16.374;2023-05-27T18:51:17;7.40;;;2.80;;
37303;SDS011;23188;51.188;16.374;2023-05-27T18:55:20;2.50;;;2.30;;
37303;SDS011;23188;51.188;16.374;2023-05-27T18:59:24;3.70;;;2.30;;
37303;SDS011;23188;51.188;16.374;2023-05-27T19:03:51;7.70;;;2.70;;
37303;SDS011;23188;51.188;16.374;2023-05-27T19:07:55;4.70;;;2.70;;
37303;SDS011;23188;51.188;16.374;2023-05-27T19:16:33;7.30;;;3.80;;
37303;SDS011;23188;51.188;16.374;2023-05-27T19:20:54;4.30;;;3.20;;
37303;SDS011;23188;51.188;16.374;2023-05-27T19:25:21;6.70;;;3.30;;
37303;SDS011;23188;51.188;16.374;2023-05-27T19:30:11;9.10;;;3.50;;
37303;SDS011;23188;51.188;16.374;2023-05-27T19:34:14;6.70;;;3.30;;
37303;SDS011;23188;51.188;16.374;2023-05-27T19:38:17;3.70;;;3.10;;
37303;SDS011;23188;51.188;16.374;2023-05-27T19:42:24;3.80;;;2.40;;
37303;SDS011;23188;51.188;16.374;2023-05-27T19:46:30;7.60;;;3.20;;
37303;SDS011;23188;51.188;16.374;2023-05-27T19:50:33;4.60;;;2.10;;
37303;SDS011;23188;51.188;16.374;2023-05-27T19:54:36;6.20;;;3.60;;
37303;SDS011;23188;51.188;16.374;2023-05-27T19:58:39;5.30;;;3.30;;
37303;SDS011;23188;51.188;16.374;2023-05-27T20:02:44;6.30;;;3.60;;
37303;SDS011;23188;51.188;16.374;2023-05-27T20:06:47;6.60;;;3.60;;
37303;SDS011;23188;51.188;16.374;2023-05-27T20:10:50;6.80;;;2.90;;
37303;SDS011;23188;51.188;16.374;2023-05-27T20:14:53;6.50;;;4.20;;
37303;SDS011;23188;51.188;16.374;2023-05-27T20:18:56;6.50;;;4.00;;
37303;SDS011;23188;51.188;16.374;2023-05-27T20:22:59;9.60;;;6.10;;
37303;SDS011;23188;51.188;16.374;2023-05-27T20:27:02;8.60;;;6.80;;
37303;SDS011;23188;51.188;16.374;2023-05-27T20:31:05;11.20;;;7.70;;
37303;SDS011;23188;51.188;16.374;2023-05-27T20:35:08;9.30;;;7.60;;
37303;SDS011;23188;51.188;16.374;2023-05-27T20:39:11;12.80;;;8.40;;
37303;SDS011;23188;51.188;16.374;2023-05-27T20:43:14;7.90;;;6.50;;
37303;SDS011;23188;51.188;16.374;2023-05-27T20:47:17;8.70;;;5.50;;
37303;SDS011;23188;51.188;16.374;2023-05-27T20:51:25;5.30;;;4.60;;
37303;SDS011;23188;51.188;16.374;2023-05-27T20:55:28;9.50;;;5.00;;
37303;SDS011;23188;51.188;16.374;2023-05-27T20:59:32;7.30;;;4.70;;
37303;SDS011;23188;51.188;16.374;2023-05-27T21:03:36;8.50;;;5.20;;
37303;SDS011;23188;51.188;16.374;2023-05-27T21:07:39;10.90;;;6.60;;
37303;SDS011;23188;51.188;16.374;2023-05-27T21:11:43;13.50;;;7.40;;
37303;SDS011;23188;51.188;16.374;2023-05-27T21:15:46;13.00;;;7.20;;
37303;SDS011;23188;51.188;16.374;2023-05-27T21:19:49;16.50;;;8.80;;
37303;SDS011;23188;51.188;16.374;2023-05-27T21:23:51;7.00;;;6.00;;
37303;SDS011;23188;51.188;16.374;2023-05-27T21:27:54;8.10;;;7.10;;
37303;SDS011;23188;51.188;16.374;2023-05-27T21:31:57;12.90;;;8.70;;
37303;SDS011;23188;51.188;16.374;2023-05-27T21:36:00;14.50;;;8.20;;
37303;SDS011;23188;51.188;16.374;2023-05-27T21:40:03;9.20;;;7.50;;
37303;SDS011;23188;51.188;16.374;2023-05-27T21:44:06;11.30;;;6.50;;
37303;SDS011;23188;51.188;16.374;2023-05-27T21:48:10;9.10;;;6.50;;
37303;SDS011;23188;51.188;16.374;2023-05-27T21:52:29;8.80;;;6.40;;
37303;SDS011;23188;51.188;16.374;2023-05-27T21:56:32;11.30;;;8.90;;
37303;SDS011;23188;51.188;16.374;2023-05-27T22:00:43;15.80;;;8.90;;
37303;SDS011;23188;51.188;16.374;2023-05-27T22:04:47;16.30;;;8.80;;
37303;SDS011;23188;51.188;16.374;2023-05-27T22:12:57;11.80;;;6.40;;
37303;SDS011;23188;51.188;16.374;2023-05-27T22:17:01;8.20;;;7.10;;
37303;SDS011;23188;51.188;16.374;2023-05-27T22:21:04;8.60;;;6.50;;
37303;SDS011;23188;51.188;16.374;2023-05-27T22:25:29;14.30;;;6.50;;
37303;SDS011;23188;51.188;16.374;2023-05-27T22:29:40;8.50;;;4.70;;
37303;SDS011;23188;51.188;16.374;2023-05-27T22:33:43;13.90;;;5.90;;
37303;SDS011;23188;51.188;16.374;2023-05-27T22:37:46;8.90;;;5.30;;
37303;SDS011;23188;51.188;16.374;2023-05-27T22:41:49;11.30;;;6.00;;
37303;SDS011;23188;51.188;16.374;2023-05-27T22:45:52;8.60;;;6.20;;
37303;SDS011;23188;51.188;16.374;2023-05-27T22:54:11;9.20;;;5.00;;
37303;SDS011;23188;51.188;16.374;2023-05-27T22:58:14;8.00;;;4.50;;
37303;SDS011;23188;51.188;16.374;2023-05-27T23:02:17;5.70;;;4.70;;
37303;SDS011;23188;51.188;16.374;2023-05-27T23:06:20;7.60;;;5.20;;
37303;SDS011;23188;51.188;16.374;2023-05-27T23:10:23;6.60;;;4.70;;
37303;SDS011;23188;51.188;16.374;2023-05-27T23:14:27;5.90;;;4.20;;
37303;SDS011;23188;51.188;16.374;2023-05-27T23:18:30;7.40;;;4.60;;
37303;SDS011;23188;51.188;16.374;2023-05-27T23:22:33;6.90;;;3.80;;
37303;SDS011;23188;51.188;16.374;2023-05-27T23:26:36;11.80;;;5.50;;
37303;SDS011;23188;51.188;16.374;2023-05-27T23:30:38;4.10;;;3.60;;
37303;SDS011;23188;51.188;16.374;2023-05-27T23:34:42;8.20;;;4.70;;
37303;SDS011;23188;51.188;16.374;2023-05-27T23:38:45;8.20;;;5.20;;
37303;SDS011;23188;51.188;16.374;2023-05-27T23:42:48;7.20;;;4.10;;
37303;SDS011;23188;51.188;16.374;2023-05-27T23:46:54;5.80;;;4.10;;
37303;SDS011;23188;51.188;16.374;2023-05-27T23:50:57;4.50;;;2.90;;
37303;SDS011;23188;51.188;16.374;2023-05-27T23:55:00;9.70;;;5.30;;
37303;SDS011;23188;51.188;16.374;2023-05-27T23:59:04;8.10;;;4.10;;
